Time;durP1;ratioP1;P1;durP2;ratioP2;P2;SDS_P1;SDS_P2;PMS_P1;PMS_P2;Temp;Humidity;BMP_temperature;BMP_pressure;BME280_temperature;BME280_humidity;BME280_pressure;Samples;Min_cycle;Max_cycle;Signal;HPM_P1;HPM_P2
2022/09/20 00:01:27;;;;;;;3.93;2.20;;;16.00;86.20;;;;;;5124116;27;20193;-76
2022/09/20 00:03:56;;;;;;;4.50;1.77;;;15.90;86.50;;;;;;5127745;27;20246;-73
2022/09/20 00:06:27;;;;;;;3.93;2.00;;;15.90;86.20;;;;;;5125704;27;20256;-75
2022/09/20 00:08:56;;;;;;;5.93;2.20;;;15.90;86.60;;;;;;5128361;27;20196;-75
2022/09/20 00:11:27;;;;;;;2.97;1.90;;;15.90;86.00;;;;;;5126078;27;20371;-76
2022/09/20 00:13:58;;;;;;;2.93;2.13;;;15.90;86.10;;;;;;5125888;27;20269;-74
2022/09/20 00:16:28;;;;;;;3.13;2.23;;;15.80;86.70;;;;;;5129296;27;20289;-74
2022/09/20 00:18:58;;;;;;;3.77;2.60;;;15.80;86.80;;;;;;5132957;27;20184;-74
2022/09/20 00:21:29;;;;;;;4.27;2.30;;;15.80;86.60;;;;;;5127573;27;20241;-75
2022/09/20 00:23:58;;;;;;;3.83;2.50;;;15.70;87.20;;;;;;5127857;27;20212;-74
2022/09/20 00:26:27;;;;;;;4.73;2.40;;;15.70;87.10;;;;;;5132007;27;20314;-77
2022/09/20 00:28:59;;;;;;;3.80;2.50;;;15.70;86.80;;;;;;5127766;27;20214;-74
2022/09/20 00:31:27;;;;;;;4.03;2.37;;;15.70;87.00;;;;;;5126611;27;20193;-75
2022/09/20 00:36:42;;;;;;;4.20;2.63;;;15.70;86.90;;;;;;5129218;27;20224;-74
2022/09/20 00:39:12;;;;;;;3.63;2.33;;;15.60;87.20;;;;;;5130207;27;20229;-75
2022/09/20 00:41:41;;;;;;;4.67;2.50;;;15.60;87.00;;;;;;5129279;27;20211;-75
2022/09/20 00:44:47;;;;;;;4.50;2.53;;;15.60;87.30;;;;;;5131609;27;20702;-78
2022/09/20 00:47:24;;;;;;;3.93;2.50;;;15.60;86.70;;;;;;5125394;27;20727;-75
2022/09/20 00:49:59;;;;;;;4.20;2.33;;;15.60;87.20;;;;;;5129787;27;20220;-74
2022/09/20 00:52:29;;;;;;;5.50;3.00;;;15.60;86.80;;;;;;5119659;27;20225;-75
2022/09/20 00:54:59;;;;;;;4.87;2.27;;;15.50;86.90;;;;;;5131579;27;20196;-74
2022/09/20 00:57:33;;;;;;;3.57;2.43;;;15.50;86.90;;;;;;5129384;27;20223;-75
2022/09/20 01:00:06;;;;;;;4.20;2.70;;;15.60;86.60;;;;;;5127721;27;20191;-75
2022/09/20 01:02:37;;;;;;;4.30;2.47;;;15.50;86.90;;;;;;5126544;27;20197;-76
2022/09/20 01:05:07;;;;;;;5.90;2.57;;;15.40;86.80;;;;;;5127255;27;20192;-77
2022/09/20 01:07:36;;;;;;;3.73;2.40;;;15.40;87.00;;;;;;5127478;27;20271;-76
2022/09/20 01:10:05;;;;;;;4.23;2.90;;;15.40;87.50;;;;;;5126482;27;20220;-74
2022/09/20 01:12:35;;;;;;;4.77;2.83;;;15.30;87.20;;;;;;5126255;27;20247;-77
2022/09/20 01:15:07;;;;;;;4.53;3.20;;;15.30;87.50;;;;;;5126822;27;20204;-74
2022/09/20 01:17:40;;;;;;;4.33;3.00;;;15.30;87.30;;;;;;5127784;27;20185;-74
2022/09/20 01:20:14;;;;;;;4.00;2.90;;;15.20;87.50;;;;;;5128403;27;20641;-75
2022/09/20 01:22:50;;;;;;;4.93;2.90;;;15.20;88.40;;;;;;5116819;27;20216;-75
2022/09/20 01:25:35;;;;;;;4.63;2.80;;;15.20;87.50;;;;;;5129687;27;20216;-77
2022/09/20 01:28:05;;;;;;;5.80;3.10;;;15.20;87.00;;;;;;5124093;27;20219;-73
2022/09/20 01:30:40;;;;;;;4.13;2.93;;;15.20;87.40;;;;;;5127282;27;20247;-74
2022/09/20 01:33:14;;;;;;;6.23;3.17;;;15.10;87.90;;;;;;5124582;27;20262;-74
2022/09/20 01:35:45;;;;;;;5.80;2.63;;;15.10;87.40;;;;;;5130524;27;20185;-75
2022/09/20 01:38:28;;;;;;;4.37;2.70;;;15.10;87.20;;;;;;5126683;27;20659;-77
2022/09/20 01:41:04;;;;;;;5.33;3.20;;;15.10;86.90;;;;;;5129725;27;20224;-74
2022/09/20 01:43:39;;;;;;;4.93;3.10;;;15.10;86.90;;;;;;5129326;27;20188;-75
2022/09/20 01:46:20;;;;;;;3.63;2.50;;;15.00;87.80;;;;;;5128713;27;20245;-75
2022/09/20 01:48:51;;;;;;;8.13;2.90;;;15.00;87.40;;;;;;5126080;27;20197;-76
2022/09/20 01:51:52;;;;;;;4.97;2.87;;;15.00;87.80;;;;;;5127781;27;20593;-75
2022/09/20 01:55:09;;;;;;;5.67;3.10;;;15.00;87.40;;;;;;5129996;27;20275;-74
2022/09/20 01:58:02;;;;;;;5.53;3.10;;;15.00;87.20;;;;;;5122896;27;20197;-75
2022/09/20 02:00:40;;;;;;;5.37;3.30;;;14.90;87.20;;;;;;5129253;27;20188;-76
2022/09/20 02:03:41;;;;;;;4.67;2.63;;;14.90;87.40;;;;;;5124933;27;20192;-75
2022/09/20 02:06:25;;;;;;;4.80;2.93;;;14.90;87.50;;;;;;5125763;27;20184;-75
2022/09/20 02:09:18;;;;;;;3.83;2.70;;;14.80;87.50;;;;;;5129233;27;20256;-76
2022/09/20 02:12:01;;;;;;;4.80;2.87;;;14.80;88.00;;;;;;5124577;27;20279;-75
2022/09/20 02:14:40;;;;;;;5.20;3.43;;;14.70;88.10;;;;;;5129014;27;20241;-77
2022/09/20 02:17:14;;;;;;;4.23;2.70;;;14.70;88.30;;;;;;5128378;27;20351;-76
2022/09/20 02:20:03;;;;;;;4.17;2.90;;;14.70;87.80;;;;;;5125594;27;20210;-76
2022/09/20 02:23:03;;;;;;;4.37;2.77;;;14.70;87.80;;;;;;5121436;28;20284;-77
2022/09/20 02:26:04;;;;;;;4.37;2.80;;;14.70;88.00;;;;;;5124810;28;20184;-76
2022/09/20 02:28:52;;;;;;;4.00;2.73;;;14.70;87.70;;;;;;5125300;28;20189;-76
2022/09/20 02:31:33;;;;;;;4.97;3.23;;;14.60;88.10;;;;;;5121967;28;20267;-74
2022/09/20 02:34:24;;;;;;;4.17;2.60;;;14.70;88.00;;;;;;5120906;28;20224;-74
2022/09/20 02:37:06;;;;;;;7.10;3.07;;;14.60;87.80;;;;;;5124633;28;20254;-76
2022/09/20 02:39:40;;;;;;;3.60;2.47;;;14.60;87.80;;;;;;5129247;28;20184;-75
2022/09/20 02:42:13;;;;;;;4.40;2.13;;;14.60;87.70;;;;;;5129445;28;20248;-76
2022/09/20 02:44:56;;;;;;;4.40;2.97;;;14.60;87.80;;;;;;5128549;28;20612;-75
2022/09/20 02:47:32;;;;;;;5.57;2.90;;;14.60;87.70;;;;;;5123608;28;20698;-75
2022/09/20 02:50:26;;;;;;;4.77;2.83;;;14.60;87.40;;;;;;5119719;28;20188;-75
2022/09/20 02:53:13;;;;;;;3.97;2.77;;;14.60;87.50;;;;;;5117628;27;20315;-75
2022/09/20 02:55:49;;;;;;;4.03;2.63;;;14.60;87.40;;;;;;5135550;27;20297;-76
2022/09/20 02:58:30;;;;;;;6.50;2.77;;;14.60;87.00;;;;;;5130989;27;22455;-75
2022/09/20 03:01:07;;;;;;;4.10;2.60;;;14.60;86.80;;;;;;5133118;27;20593;-76
2022/09/20 03:03:46;;;;;;;4.60;2.70;;;14.60;86.60;;;;;;5125582;27;20351;-75
2022/09/20 03:06:24;;;;;;;4.27;2.80;;;14.60;86.60;;;;;;5119960;27;20544;-75
2022/09/20 03:09:01;;;;;;;5.27;2.73;;;14.60;86.80;;;;;;5124848;27;20224;-74
2022/09/20 03:11:35;;;;;;;4.87;2.70;;;14.60;86.70;;;;;;5132249;27;20222;-74
2022/09/20 03:14:16;;;;;;;6.40;2.87;;;14.60;86.60;;;;;;5127980;27;20766;-75
2022/09/20 03:16:58;;;;;;;5.30;2.60;;;14.60;86.30;;;;;;5129288;27;20280;-75
2022/09/20 03:19:38;;;;;;;6.53;2.93;;;14.60;86.40;;;;;;5126234;27;20188;-75
2022/09/20 03:22:20;;;;;;;6.50;2.70;;;14.60;86.10;;;;;;5131591;27;20196;-75
2022/09/20 03:25:07;;;;;;;3.80;2.40;;;14.60;85.90;;;;;;5126394;27;20233;-75
2022/09/20 03:27:44;;;;;;;4.67;2.63;;;14.60;85.90;;;;;;5131427;27;20600;-76
2022/09/20 03:30:32;;;;;;;4.03;2.63;;;14.60;85.90;;;;;;5124329;27;20208;-77
2022/09/20 03:33:11;;;;;;;3.70;2.40;;;14.60;86.10;;;;;;5127754;27;20225;-77
2022/09/20 03:35:53;;;;;;;4.57;2.67;;;14.50;85.80;;;;;;5129478;27;20192;-75
2022/09/20 03:38:44;;;;;;;4.03;2.80;;;14.50;85.80;;;;;;5127905;27;20185;-75
2022/09/20 03:41:31;;;;;;;3.33;2.30;;;14.50;85.90;;;;;;5130711;27;20180;-77
2022/09/20 03:44:14;;;;;;;4.20;2.50;;;14.50;85.90;;;;;;5129934;27;20609;-75
2022/09/20 03:46:46;;;;;;;4.10;2.57;;;14.40;86.60;;;;;;5127232;27;20599;-75
2022/09/20 03:49:53;;;;;;;4.30;2.20;;;14.40;86.50;;;;;;5127708;27;20549;-74
2022/09/20 03:52:45;;;;;;;4.07;2.50;;;14.40;85.60;;;;;;5128739;27;20287;-76
2022/09/20 03:55:43;;;;;;;8.83;2.70;;;14.40;85.60;;;;;;5128212;27;20550;-76
2022/09/20 03:58:26;;;;;;;4.20;2.77;;;14.40;85.60;;;;;;5129307;27;20238;-75
2022/09/20 04:01:14;;;;;;;5.57;3.33;;;14.30;85.30;;;;;;5128250;27;20193;-75
2022/09/20 04:03:49;;;;;;;4.33;2.60;;;14.30;85.40;;;;;;5125546;27;20180;-74
2022/09/20 04:06:40;;;;;;;3.40;2.20;;;14.30;85.40;;;;;;5124188;27;20196;-74
2022/09/20 04:09:37;;;;;;;4.67;2.60;;;14.30;85.30;;;;;;5125497;27;20187;-75
2022/09/20 04:12:15;;;;;;;4.70;2.90;;;14.30;85.10;;;;;;5125383;27;20188;-75
2022/09/20 04:14:52;;;;;;;3.87;2.10;;;14.30;85.10;;;;;;5128983;27;20226;-75
2022/09/20 04:17:31;;;;;;;5.97;2.60;;;14.30;84.90;;;;;;5127809;27;20188;-75
2022/09/20 04:20:05;;;;;;;5.10;2.63;;;14.30;84.80;;;;;;5129331;27;20680;-75
2022/09/20 04:22:34;;;;;;;4.53;2.73;;;14.30;84.60;;;;;;5129290;27;20214;-75
2022/09/20 04:25:12;;;;;;;4.63;2.67;;;14.30;84.50;;;;;;5127963;27;20189;-75
2022/09/20 04:27:47;;;;;;;3.77;2.30;;;14.30;84.30;;;;;;5126026;27;20184;-75
2022/09/20 04:30:18;;;;;;;4.23;2.43;;;14.40;84.30;;;;;;5130447;27;22297;-74
2022/09/20 04:32:55;;;;;;;4.03;2.47;;;14.30;84.20;;;;;;5131815;27;20188;-75
2022/09/20 04:38:22;;;;;;;5.45;2.30;;;14.40;84.20;;;;;;5127967;27;20431;-75
2022/09/20 04:41:08;;;;;;;3.63;2.07;;;14.30;84.30;;;;;;5130404;27;20237;-75
2022/09/20 04:44:23;;;;;;;4.00;2.20;;;14.30;84.10;;;;;;5131808;27;20245;-75
2022/09/20 04:47:21;;;;;;;4.23;2.43;;;14.30;84.00;;;;;;5129832;27;20224;-75
2022/09/20 04:50:22;;;;;;;3.17;1.80;;;14.40;83.70;;;;;;5122452;27;20291;-75
2022/09/20 04:53:45;;;;;;;3.60;2.00;;;14.40;83.60;;;;;;5128691;27;20215;-75
2022/09/20 04:56:21;;;;;;;4.20;2.20;;;14.40;83.40;;;;;;5032899;28;20234;-75
2022/09/20 04:59:06;;;;;;;4.77;1.90;;;14.40;83.10;;;;;;5109045;27;20249;-76
2022/09/20 05:02:23;;;;;;;3.50;1.90;;;14.40;83.00;;;;;;5123368;27;20193;-74
2022/09/20 05:05:29;;;;;;;8.47;2.40;;;14.40;82.90;;;;;;5129908;27;20652;-75
2022/09/20 05:08:40;;;;;;;2.73;1.60;;;14.40;82.70;;;;;;5124498;27;20220;-75
2022/09/20 05:11:37;;;;;;;6.17;2.10;;;14.40;82.70;;;;;;5128609;27;20192;-75
2022/09/20 05:14:37;;;;;;;3.53;2.07;;;14.40;82.50;;;;;;5127991;27;20326;-76
2022/09/20 05:17:20;;;;;;;2.43;1.73;;;14.50;82.30;;;;;;5086728;27;20201;-74
2022/09/20 05:20:26;;;;;;;4.27;1.67;;;14.50;82.10;;;;;;5130346;27;20204;-75
2022/09/20 05:23:11;;;;;;;2.93;1.70;;;14.50;82.00;;;;;;5129947;27;20224;-76
2022/09/20 05:26:03;;;;;;;2.90;1.60;;;14.50;81.80;;;;;;5127492;27;20683;-76
2022/09/20 05:28:37;;;;;;;4.23;1.73;;;14.50;81.70;;;;;;5128516;27;20193;-75
2022/09/20 05:31:13;;;;;;;3.40;1.70;;;14.50;81.60;;;;;;5128896;27;20223;-75
2022/09/20 05:33:51;;;;;;;7.87;1.50;;;14.60;81.80;;;;;;5126874;27;20315;-75
2022/09/20 05:36:30;;;;;;;2.97;1.93;;;14.50;81.50;;;;;;5129353;27;20602;-77
2022/09/20 05:39:13;;;;;;;9.23;1.70;;;14.60;81.40;;;;;;5127197;27;20208;-76
2022/09/20 05:41:47;;;;;;;2.55;1.70;;;14.60;81.30;;;;;;5125318;27;20439;-79
2022/09/20 05:44:25;;;;;;;4.80;1.60;;;14.60;81.60;;;;;;5127986;27;20608;-75
2022/09/20 05:47:05;;;;;;;3.87;1.23;;;14.60;81.40;;;;;;5127978;27;20245;-76
2022/09/20 05:49:47;;;;;;;2.37;1.30;;;14.70;81.30;;;;;;5127144;27;20212;-75
2022/09/20 05:52:41;;;;;;;3.80;1.20;;;14.70;80.80;;;;;;5129529;27;20229;-76
2022/09/20 05:55:35;;;;;;;2.13;1.27;;;14.70;80.30;;;;;;5131746;27;20259;-75
2022/09/20 05:58:20;;;;;;;2.27;1.27;;;14.80;80.00;;;;;;5126450;27;20249;-74
2022/09/20 06:00:53;;;;;;;1.70;1.10;;;14.80;79.80;;;;;;5125844;27;20237;-76
2022/09/20 06:03:35;;;;;;;2.13;1.23;;;14.90;79.60;;;;;;5126924;27;20192;-75
2022/09/20 06:06:10;;;;;;;2.50;1.20;;;14.90;79.20;;;;;;5131988;27;20192;-75
2022/09/20 06:09:21;;;;;;;5.07;1.17;;;15.00;79.10;;;;;;5125464;27;21196;-75
2022/09/20 06:12:13;;;;;;;3.35;1.15;;;15.10;79.10;;;;;;5115982;27;20506;-76
2022/09/20 06:14:51;;;;;;;2.77;1.23;;;15.10;78.40;;;;;;5120489;27;20259;-76
2022/09/20 06:17:27;;;;;;;2.47;1.20;;;15.20;77.80;;;;;;5125429;27;20217;-75
2022/09/20 06:20:21;;;;;;;2.97;0.90;;;15.20;77.80;;;;;;5122065;28;20188;-74
2022/09/20 06:22:52;;;;;;;1.30;0.77;;;15.20;77.40;;;;;;5121723;28;20542;-76
2022/09/20 06:25:24;;;;;;;2.87;0.90;;;15.30;77.10;;;;;;5131213;28;20245;-75
2022/09/20 06:27:56;;;;;;;1.73;0.87;;;15.30;77.00;;;;;;5130645;27;20192;-74
2022/09/20 06:30:27;;;;;;;3.90;0.90;;;15.40;77.10;;;;;;5133907;27;20213;-74
2022/09/20 06:32:59;;;;;;;1.57;0.80;;;15.40;76.10;;;;;;5131227;27;20216;-74
2022/09/20 06:35:35;;;;;;;4.60;1.00;;;15.50;75.90;;;;;;5132922;27;20243;-75
2022/09/20 06:43:57;;;;;;;1.63;0.90;;;15.60;74.90;;;;;;5136052;27;20216;-74
2022/09/20 06:46:27;;;;;;;4.07;0.97;;;15.70;74.80;;;;;;5136690;27;20265;-74
2022/09/20 06:48:56;;;;;;;5.20;1.03;;;15.80;74.50;;;;;;5123028;27;20224;-74
2022/09/20 06:51:28;;;;;;;1.33;0.63;;;15.90;74.20;;;;;;5137256;27;20237;-74
2022/09/20 06:53:57;;;;;;;6.87;0.90;;;15.90;72.70;;;;;;5132402;27;20195;-76
2022/09/20 06:56:27;;;;;;;3.33;0.93;;;15.90;72.70;;;;;;5136637;27;20216;-75
2022/09/20 06:58:56;;;;;;;2.07;0.70;;;16.00;73.00;;;;;;5133279;27;20250;-74
2022/09/20 07:01:24;;;;;;;4.60;1.17;;;16.20;72.80;;;;;;5135386;27;20604;-75
2022/09/20 07:03:58;;;;;;;1.63;0.60;;;16.20;71.80;;;;;;5130958;27;20637;-73
2022/09/20 07:06:28;;;;;;;3.13;0.97;;;16.30;71.30;;;;;;5129598;27;20223;-75
2022/09/20 07:08:56;;;;;;;1.60;0.50;;;16.40;70.60;;;;;;5131456;27;20257;-75
2022/09/20 07:11:25;;;;;;;2.03;0.70;;;16.50;70.50;;;;;;5132534;27;20267;-74
2022/09/20 07:13:57;;;;;;;4.73;0.70;;;16.60;70.80;;;;;;5128412;27;20275;-76
2022/09/20 07:16:26;;;;;;;1.30;0.80;;;16.70;70.00;;;;;;5134063;27;20714;-74
2022/09/20 07:18:55;;;;;;;1.67;0.80;;;16.80;69.10;;;;;;5130222;27;20206;-75
2022/09/20 07:21:24;;;;;;;1.27;0.70;;;16.80;69.40;;;;;;5127025;27;20181;-76
2022/09/20 07:23:53;;;;;;;3.63;0.83;;;16.90;69.50;;;;;;5136387;27;20242;-77
2022/09/20 07:26:24;;;;;;;2.53;1.00;;;17.00;69.60;;;;;;5131688;27;20198;-77
2022/09/20 07:28:52;;;;;;;1.67;0.70;;;17.10;68.70;;;;;;5131781;27;20232;-80
2022/09/20 07:31:23;;;;;;;1.50;0.60;;;17.10;68.30;;;;;;5135802;27;20216;-77
2022/09/20 07:33:51;;;;;;;1.23;0.90;;;17.10;68.90;;;;;;5131506;27;20220;-77
2022/09/20 07:36:21;;;;;;;2.00;0.97;;;17.20;68.80;;;;;;5129770;27;20251;-79
2022/09/20 07:38:51;;;;;;;1.03;0.60;;;17.20;68.40;;;;;;5129963;27;20187;-76
2022/09/20 07:41:22;;;;;;;1.10;0.60;;;17.20;67.40;;;;;;5126342;27;20294;-75
2022/09/20 07:43:51;;;;;;;3.10;0.60;;;17.20;66.80;;;;;;5129402;27;20196;-77
2022/09/20 07:46:21;;;;;;;1.47;0.90;;;17.30;67.10;;;;;;5129323;27;20620;-78
2022/09/20 07:48:49;;;;;;;1.60;0.70;;;17.30;67.10;;;;;;5130225;27;20189;-76
2022/09/20 07:51:17;;;;;;;1.17;0.80;;;17.30;67.00;;;;;;5125448;27;20200;-77
2022/09/20 07:53:46;;;;;;;1.30;0.53;;;17.40;66.70;;;;;;5126186;27;20224;-77
2022/09/20 07:56:17;;;;;;;2.33;1.00;;;17.40;66.70;;;;;;5135607;27;20266;-76
2022/09/20 07:58:46;;;;;;;1.30;0.73;;;17.40;66.10;;;;;;5134492;27;20191;-77
2022/09/20 08:01:20;;;;;;;1.47;0.73;;;17.40;66.10;;;;;;5131260;27;20196;-76
2022/09/20 08:03:48;;;;;;;1.37;0.60;;;17.50;65.80;;;;;;5130653;27;20238;-76
2022/09/20 08:06:20;;;;;;;4.83;1.00;;;17.50;66.20;;;;;;5134062;27;20280;-80
2022/09/20 08:08:50;;;;;;;0.87;0.67;;;17.60;65.70;;;;;;5126576;27;20288;-78
2022/09/20 08:11:20;;;;;;;1.60;0.67;;;17.60;65.30;;;;;;5124830;27;20185;-76
2022/09/20 08:13:51;;;;;;;1.07;0.50;;;17.70;66.20;;;;;;5129421;27;20184;-76
2022/09/20 08:16:39;;;;;;;1.43;0.60;;;17.60;63.60;;;;;;5128926;27;20212;-76
2022/09/20 08:19:08;;;;;;;3.90;0.77;;;17.70;63.30;;;;;;5126477;27;20188;-76
2022/09/20 08:21:38;;;;;;;0.83;0.50;;;17.70;63.00;;;;;;5128796;27;20288;-75
2022/09/20 08:24:07;;;;;;;2.13;0.70;;;17.70;63.30;;;;;;5132706;27;20249;-75
2022/09/20 08:26:35;;;;;;;2.30;1.02;;;17.80;63.60;;;;;;5130762;27;20432;-75
2022/09/20 08:29:06;;;;;;;2.77;0.70;;;17.80;63.30;;;;;;5120873;27;20196;-75
2022/09/20 08:31:39;;;;;;;1.30;0.60;;;17.90;63.20;;;;;;5130330;27;20204;-74
2022/09/20 08:34:08;;;;;;;2.07;0.80;;;17.90;63.50;;;;;;5129082;27;20220;-74
2022/09/20 08:36:39;;;;;;;2.07;0.70;;;18.00;63.00;;;;;;5129977;27;20249;-74
2022/09/20 08:39:09;;;;;;;1.27;0.60;;;18.10;63.10;;;;;;5129344;27;20645;-75
2022/09/20 08:42:01;;;;;;;1.07;0.60;;;18.10;62.60;;;;;;5124816;27;20196;-75
2022/09/20 08:44:34;;;;;;;2.33;1.10;;;18.30;62.50;;;;;;5131358;27;20224;-73
2022/09/20 08:47:11;;;;;;;0.80;0.50;;;18.40;62.70;;;;;;5128932;27;20222;-75
2022/09/20 08:49:40;;;;;;;1.73;0.60;;;18.40;60.50;;;;;;5130069;27;20216;-74
2022/09/20 08:52:18;;;;;;;1.33;0.60;;;18.40;59.20;;;;;;5124919;27;20193;-76
2022/09/20 08:54:46;;;;;;;1.93;0.43;;;18.50;59.80;;;;;;5124557;27;20216;-75
2022/09/20 08:57:16;;;;;;;0.87;0.50;;;18.60;60.00;;;;;;5128973;27;20756;-74
2022/09/20 08:59:47;;;;;;;0.90;0.50;;;18.60;59.20;;;;;;5129531;27;20599;-75
2022/09/20 09:02:24;;;;;;;4.37;0.80;;;18.60;58.50;;;;;;5128457;27;20212;-76
2022/09/20 09:04:53;;;;;;;1.67;0.60;;;18.60;58.10;;;;;;5123484;27;20246;-75
2022/09/20 09:07:23;;;;;;;6.27;0.60;;;18.70;58.30;;;;;;5118293;27;20617;-79
2022/09/20 09:09:54;;;;;;;1.57;0.93;;;18.70;57.70;;;;;;5122014;27;20200;-78
2022/09/20 09:12:24;;;;;;;0.97;0.40;;;18.80;57.40;;;;;;5127614;27;20188;-76
2022/09/20 09:14:58;;;;;;;1.63;0.90;;;18.80;56.30;;;;;;5127350;27;20283;-76
2022/09/20 09:17:29;;;;;;;1.47;0.50;;;18.90;56.30;;;;;;5128679;27;20215;-75
2022/09/20 09:19:58;;;;;;;4.43;0.40;;;18.90;56.00;;;;;;5129271;27;20196;-74
2022/09/20 09:22:35;;;;;;;1.37;0.57;;;19.00;56.40;;;;;;5126578;27;20235;-76
2022/09/20 09:25:26;;;;;;;1.00;0.60;;;19.10;56.30;;;;;;5131097;27;20193;-74
2022/09/20 09:27:57;;;;;;;2.83;0.50;;;19.20;56.30;;;;;;5126934;27;20220;-75
2022/09/20 09:30:30;;;;;;;0.50;0.37;;;19.20;55.50;;;;;;5130430;27;20193;-75
2022/09/20 09:33:24;;;;;;;1.23;0.40;;;19.30;56.10;;;;;;5128329;27;20238;-75
2022/09/20 09:35:59;;;;;;;0.83;0.50;;;19.40;55.90;;;;;;5098568;28;20598;-74
2022/09/20 09:38:29;;;;;;;2.53;0.60;;;19.50;54.60;;;;;;5102384;28;20188;-73
2022/09/20 09:40:59;;;;;;;12.30;1.27;;;19.50;54.80;;;;;;5108934;28;20598;-74
2022/09/20 09:43:32;;;;;;;0.77;0.40;;;19.50;54.00;;;;;;5107892;28;20629;-74
2022/09/20 09:46:21;;;;;;;4.30;0.73;;;19.60;54.00;;;;;;5108923;28;20562;-75
2022/09/20 09:49:07;;;;;;;0.80;0.30;;;19.60;54.30;;;;;;5110543;28;20189;-74
2022/09/20 09:51:41;;;;;;;0.60;0.43;;;19.70;53.40;;;;;;5105473;28;20609;-74
2022/09/20 09:54:27;;;;;;;0.50;0.40;;;19.80;53.10;;;;;;5105845;28;20193;-74
2022/09/20 09:57:03;;;;;;;2.20;0.40;;;19.80;51.50;;;;;;5106099;28;20221;-74
2022/09/20 09:59:53;;;;;;;0.30;0.30;;;19.80;51.10;;;;;;5107388;28;20246;-74
2022/09/20 10:03:00;;;;;;;1.20;0.40;;;19.90;52.10;;;;;;5102026;28;20273;-76
2022/09/20 10:05:33;;;;;;;0.73;0.30;;;19.90;52.00;;;;;;5099770;28;20193;-75
2022/09/20 10:08:14;;;;;;;1.27;0.30;;;20.00;52.30;;;;;;5102307;28;20230;-74
2022/09/20 10:10:59;;;;;;;0.73;0.27;;;20.10;52.70;;;;;;5104529;28;20789;-75
2022/09/20 10:13:34;;;;;;;0.20;0.20;;;20.20;52.40;;;;;;5110539;28;20185;-73
2022/09/20 10:16:16;;;;;;;1.33;0.40;;;20.20;51.80;;;;;;5099843;28;20180;-74
2022/09/20 10:18:52;;;;;;;0.90;0.60;;;20.30;51.60;;;;;;5107278;28;20195;-75
2022/09/20 10:21:36;;;;;;;0.87;0.40;;;20.30;52.10;;;;;;5105284;28;20650;-74
2022/09/20 10:24:29;;;;;;;0.80;0.33;;;20.40;51.30;;;;;;5095363;28;20729;-75
2022/09/20 10:27:12;;;;;;;1.57;0.70;;;20.30;50.80;;;;;;5104014;28;20221;-74
2022/09/20 10:29:53;;;;;;;0.50;0.30;;;20.40;51.30;;;;;;5110521;28;20246;-73
2022/09/20 10:32:35;;;;;;;0.55;0.50;;;20.40;51.30;;;;;;5103727;28;20220;-74
2022/09/20 10:35:22;;;;;;;0.63;0.60;;;20.50;51.60;;;;;;5106586;28;20220;-75
2022/09/20 10:38:02;;;;;;;2.03;0.40;;;20.60;52.00;;;;;;5103678;28;20256;-73
2022/09/20 10:43:33;;;;;;;3.28;0.40;;;20.60;51.70;;;;;;5108690;28;20220;-74
2022/09/20 10:46:14;;;;;;;1.83;1.05;;;20.60;51.40;;;;;;5107243;28;20215;-75
2022/09/20 10:49:04;;;;;;;4.35;0.47;;;20.60;51.20;;;;;;5105791;28;20657;-76
2022/09/20 10:51:43;;;;;;;1.00;0.40;;;20.60;51.50;;;;;;5108211;28;20227;-74
2022/09/20 10:54:26;;;;;;;1.92;0.40;;;20.60;52.50;;;;;;5107680;28;20189;-74
2022/09/20 10:57:05;;;;;;;1.13;0.50;;;20.70;51.80;;;;;;5108265;28;20304;-75
2022/09/20 10:59:46;;;;;;;0.30;0.30;;;20.80;51.60;;;;;;5110042;28;20232;-74
2022/09/20 11:02:32;;;;;;;1.20;0.40;;;20.80;51.90;;;;;;5107674;28;20720;-75
2022/09/20 11:05:18;;;;;;;0.80;0.35;;;20.80;50.70;;;;;;5105694;28;20272;-74
2022/09/20 11:07:58;;;;;;;2.72;0.47;;;20.80;51.20;;;;;;5099827;28;20672;-74
2022/09/20 11:10:32;;;;;;;2.47;0.40;;;20.80;50.90;;;;;;5107152;28;20725;-75
2022/09/20 11:13:04;;;;;;;0.82;0.40;;;20.80;51.20;;;;;;5103465;28;20221;-75
2022/09/20 11:15:36;;;;;;;0.45;0.38;;;20.80;51.30;;;;;;5102182;28;20788;-75
2022/09/20 11:18:11;;;;;;;0.60;0.40;;;20.90;51.40;;;;;;5112031;28;20239;-76
2022/09/20 11:20:45;;;;;;;0.68;0.40;;;20.80;50.60;;;;;;5113472;28;20226;-77
2022/09/20 11:23:19;;;;;;;1.63;0.50;;;20.90;50.90;;;;;;5112267;28;20273;-73
2022/09/20 11:25:52;;;;;;;1.38;0.50;;;20.90;50.90;;;;;;5108059;28;20334;-75
2022/09/20 11:28:25;;;;;;;0.80;0.40;;;20.90;51.00;;;;;;5104050;28;20224;-74
2022/09/20 11:31:01;;;;;;;0.75;0.40;;;20.90;51.10;;;;;;5112198;28;20297;-75
2022/09/20 11:33:36;;;;;;;2.50;0.63;;;20.90;51.30;;;;;;5110471;28;20639;-74
2022/09/20 11:36:14;;;;;;;2.05;0.40;;;21.00;51.50;;;;;;5105496;28;20640;-76
2022/09/20 11:38:49;;;;;;;2.60;0.40;;;20.90;51.30;;;;;;5112259;28;20260;-76
2022/09/20 11:41:26;;;;;;;0.77;0.40;;;20.90;51.10;;;;;;5108228;28;20189;-74
2022/09/20 11:43:58;;;;;;;0.40;0.40;;;21.00;51.00;;;;;;5113333;28;20713;-75
2022/09/20 11:46:30;;;;;;;1.30;0.40;;;21.00;51.10;;;;;;5110810;28;20231;-74
2022/09/20 11:49:02;;;;;;;1.40;0.40;;;21.00;50.10;;;;;;5108881;28;20277;-74
2022/09/20 11:51:58;;;;;;;0.65;0.40;;;21.00;50.70;;;;;;5110285;28;20185;-74
2022/09/20 11:55:07;;;;;;;0.98;0.32;;;21.00;50.10;;;;;;5111246;28;20755;-74
2022/09/20 11:57:35;;;;;;;0.30;0.30;;;21.10;50.60;;;;;;5108959;28;20224;-75
2022/09/20 12:00:07;;;;;;;0.57;0.30;;;21.10;50.70;;;;;;5110425;28;20220;-76
2022/09/20 12:02:41;;;;;;;2.58;0.70;;;21.10;50.10;;;;;;5106410;28;20638;-76
2022/09/20 12:05:26;;;;;;;3.60;0.40;;;21.20;49.60;;;;;;5107540;28;20185;-76
2022/09/20 12:07:58;;;;;;;1.85;0.35;;;21.20;48.30;;;;;;5105870;28;20280;-74
2022/09/20 12:10:32;;;;;;;0.73;0.65;;;21.20;48.80;;;;;;5113278;28;20224;-75
2022/09/20 12:13:03;;;;;;;1.50;0.43;;;21.20;48.80;;;;;;5109477;28;20645;-74
2022/09/20 12:15:34;;;;;;;0.50;0.30;;;21.30;49.00;;;;;;5110578;28;20208;-75
2022/09/20 12:18:27;;;;;;;3.20;0.50;;;21.40;48.90;;;;;;5101771;28;20297;-74
2022/09/20 12:21:00;;;;;;;0.80;0.40;;;21.40;48.50;;;;;;5108852;28;20220;-75
2022/09/20 12:24:17;;;;;;;0.85;0.40;;;21.40;48.50;;;;;;5106483;28;20233;-75
2022/09/20 12:26:51;;;;;;;1.75;0.40;;;21.30;48.10;;;;;;5104099;28;20642;-76
2022/09/20 12:30:14;;;;;;;0.60;0.40;;;21.40;48.60;;;;;;5110363;28;20249;-75
2022/09/20 12:33:01;;;;;;;1.35;0.50;;;21.40;48.40;;;;;;5109372;28;20697;-74
2022/09/20 12:36:14;;;;;;;2.92;0.40;;;21.40;48.60;;;;;;5109790;28;20280;-73
2022/09/20 12:39:05;;;;;;;0.30;0.30;;;21.40;48.70;;;;;;5111608;28;20213;-75
2022/09/20 12:41:52;;;;;;;0.68;0.40;;;21.40;48.50;;;;;;5104939;28;20220;-75
2022/09/20 12:44:28;;;;;;;1.73;0.20;;;21.40;48.50;;;;;;5108910;28;20713;-75
2022/09/20 12:46:58;;;;;;;0.88;0.40;;;21.40;48.40;;;;;;5108297;28;20220;-74
2022/09/20 12:52:59;;;;;;;1.10;0.40;;;21.40;48.20;;;;;;5110112;28;20189;-74
2022/09/20 12:55:51;;;;;;;1.45;0.30;;;21.40;48.20;;;;;;5110430;28;20201;-76
2022/09/20 12:58:25;;;;;;;0.95;0.40;;;21.40;48.50;;;;;;5103759;28;20201;-74
2022/09/20 13:01:25;;;;;;;2.45;0.43;;;21.40;48.50;;;;;;5107743;28;20646;-75
2022/09/20 13:03:56;;;;;;;1.60;0.35;;;21.50;48.60;;;;;;5111090;28;20268;-74
2022/09/20 13:06:26;;;;;;;1.88;0.40;;;21.50;48.60;;;;;;5106517;28;20280;-76
2022/09/20 13:09:02;;;;;;;1.25;0.47;;;21.50;48.50;;;;;;5106242;28;20280;-75
2022/09/20 13:11:38;;;;;;;2.03;0.30;;;21.50;48.60;;;;;;5105907;28;20583;-75
2022/09/20 13:14:13;;;;;;;1.60;0.40;;;21.50;48.80;;;;;;5106794;28;20241;-78
2022/09/20 13:16:50;;;;;;;0.30;0.30;;;21.50;48.10;;;;;;5107756;28;20213;-77
2022/09/20 13:19:20;;;;;;;2.78;0.40;;;21.50;47.60;;;;;;5107368;28;20212;-74
2022/09/20 13:21:56;;;;;;;1.77;0.40;;;21.60;47.60;;;;;;5104938;28;20591;-74
2022/09/20 13:24:27;;;;;;;0.95;0.40;;;21.60;47.30;;;;;;5112253;28;20725;-74
2022/09/20 13:27:12;;;;;;;0.70;0.38;;;21.60;47.60;;;;;;5107944;28;20262;-77
2022/09/20 13:29:48;;;;;;;0.52;0.40;;;21.60;47.70;;;;;;5106976;28;20704;-76
2022/09/20 13:32:17;;;;;;;4.25;0.40;;;21.60;48.00;;;;;;5106839;28;20246;-74
2022/09/20 13:34:46;;;;;;;5.65;0.65;;;21.50;47.40;;;;;;5103891;28;20221;-75
2022/09/20 13:37:19;;;;;;;2.80;0.43;;;21.50;47.30;;;;;;5107759;28;20193;-73
2022/09/20 13:39:53;;;;;;;4.43;0.60;;;21.50;47.60;;;;;;5112390;28;20708;-75
2022/09/20 13:42:22;;;;;;;5.40;0.70;;;21.40;47.50;;;;;;5109378;28;20197;-75
2022/09/20 13:44:52;;;;;;;3.35;0.40;;;21.40;47.50;;;;;;5112031;28;20227;-75
2022/09/20 13:47:28;;;;;;;1.52;0.50;;;21.40;47.70;;;;;;5111482;28;20246;-75
2022/09/20 13:50:01;;;;;;;4.00;0.70;;;21.90;47.20;;;;;;5107746;28;20189;-74
2022/09/20 13:52:31;;;;;;;2.20;0.55;;;22.70;46.20;;;;;;5104358;28;20221;-74
2022/09/20 13:54:59;;;;;;;2.67;0.63;;;23.30;46.70;;;;;;5111509;28;20218;-75
2022/09/20 13:57:30;;;;;;;4.32;0.47;;;23.60;46.10;;;;;;5106878;28;20723;-76
2022/09/20 14:00:00;;;;;;;1.90;0.47;;;23.30;46.10;;;;;;5106227;28;20254;-78
2022/09/20 14:02:32;;;;;;;3.53;0.30;;;23.10;45.70;;;;;;5103374;28;20185;-75
2022/09/20 14:05:03;;;;;;;1.08;0.45;;;23.00;45.50;;;;;;5104487;28;20231;-76